Terminal Aerodrome Forecast
Issued by NWS

Home | Current Version | Previous Version | Graphics & Text | Print | Product List | Glossary On
Versions: 1 2 3 4 5 6 7 8 9 10 11 12 13 14 15 16 17 18 19 20 21 22 23 24 25 26 27 28 29 30
000
FTUS43 KLOT 291727
TAFDPA
TAF
KDPA 291727Z 2918/3018 02007KT P6SM VCTS SCT025CB BKN040
      TEMPO 2918/2922 VRB12G18KT 3SM -TSRA BKN025CB
     FM292200 05009KT P6SM VCSH BKN040
     FM300100 04006KT 6SM BR VCSH BKN040
     FM301500 07010KT P6SM BKN045=

USA.gov is the U.S. government's official web portal to all federal, state and local government web resources and services.